Time;durP1;ratioP1;P1;durP2;ratioP2;P2;SDS_P1;SDS_P2;PMS_P1;PMS_P2;Temp;Humidity;BMP_temperature;BMP_pressure;BME280_temperature;BME280_humidity;BME280_pressure;Samples;Min_cycle;Max_cycle;Signal;HPM_P1;HPM_P2
2020/09/01 00:00:54;;;;;;;16.05;14.55;;;;;;;13.56;100;95155.06;;;;
2020/09/01 00:02:00;;;;;;;16.05;14.55;;;;;;;13.56;100;95155.06;;;;
2020/09/01 00:03:05;;;;;;;16.05;14.55;;;;;;;13.56;100;95155.06;;;;
2020/09/01 00:04:17;;;;;;;16.05;14.55;;;;;;;13.56;100;95155.06;;;;
2020/09/01 00:05:23;;;;;;;16.05;14.55;;;;;;;13.56;100;95155.06;;;;
2020/09/01 00:06:28;;;;;;;16.05;14.55;;;;;;;13.56;100;95155.06;;;;
2020/09/01 00:07:33;;;;;;;17.1;15.5;;;;;;;13.52;100;95155.86;;;;
2020/09/01 00:08:38;;;;;;;17.1;15.5;;;;;;;13.52;100;95155.86;;;;
2020/09/01 00:09:45;;;;;;;17.1;15.5;;;;;;;13.52;100;95155.86;;;;
2020/09/01 00:10:51;;;;;;;17.1;15.5;;;;;;;13.52;100;95155.86;;;;
2020/09/01 00:11:56;;;;;;;17.1;15.5;;;;;;;13.52;100;95155.86;;;;
2020/09/01 00:13:02;;;;;;;17.1;15.5;;;;;;;13.52;100;95155.86;;;;
2020/09/01 00:14:13;;;;;;;17.1;15.5;;;;;;;13.52;100;95155.86;;;;
2020/09/01 00:15:19;;;;;;;17.1;15.5;;;;;;;13.52;100;95155.86;;;;
2020/09/01 00:16:28;;;;;;;17.1;15.5;;;;;;;13.52;100;95155.86;;;;
2020/09/01 00:17:33;;;;;;;15.9;14.5;;;;;;;13.45;100;95150.76;;;;
2020/09/01 00:18:39;;;;;;;15.9;14.5;;;;;;;13.45;100;95150.76;;;;
2020/09/01 00:19:44;;;;;;;15.9;14.5;;;;;;;13.45;100;95150.76;;;;
2020/09/01 00:20:49;;;;;;;15.9;14.5;;;;;;;13.45;100;95150.76;;;;
2020/09/01 00:21:55;;;;;;;15.9;14.5;;;;;;;13.45;100;95150.76;;;;
2020/09/01 00:22:59;;;;;;;15.9;14.5;;;;;;;13.45;100;95150.76;;;;
2020/09/01 00:24:00;;;;;;;15.9;14.5;;;;;;;13.45;100;95150.76;;;;
2020/09/01 00:25:07;;;;;;;15.9;14.5;;;;;;;13.45;100;95150.76;;;;
2020/09/01 00:26:11;;;;;;;15.9;14.5;;;;;;;13.45;100;95150.76;;;;
2020/09/01 00:27:19;;;;;;;15.9;14.5;;;;;;;13.45;100;95150.76;;;;
2020/09/01 00:28:29;;;;;;;17.1;15.55;;;;;;;13.3;100;95139.23;;;;
2020/09/01 00:29:34;;;;;;;17.1;15.55;;;;;;;13.3;100;95139.23;;;;
2020/09/01 00:30:41;;;;;;;17.1;15.55;;;;;;;13.3;100;95139.23;;;;
2020/09/01 00:31:47;;;;;;;17.1;15.55;;;;;;;13.3;100;95139.23;;;;
2020/09/01 00:32:52;;;;;;;17.1;15.55;;;;;;;13.3;100;95139.23;;;;
2020/09/01 00:33:53;;;;;;;17.1;15.55;;;;;;;13.3;100;95139.23;;;;
2020/09/01 00:34:57;;;;;;;17.1;15.55;;;;;;;13.3;100;95139.23;;;;
2020/09/01 00:36:01;;;;;;;17.1;15.55;;;;;;;13.3;100;95139.23;;;;
2020/09/01 00:37:03;;;;;;;17.1;15.55;;;;;;;13.3;100;95139.23;;;;
2020/09/01 00:38:04;;;;;;;17.1;15.55;;;;;;;13.3;100;95139.23;;;;
2020/09/01 00:39:05;;;;;;;16.45;14.95;;;;;;;13.17;100;95133.79;;;;
2020/09/01 00:40:11;;;;;;;16.45;14.95;;;;;;;13.17;100;95133.79;;;;
2020/09/01 00:41:18;;;;;;;16.45;14.95;;;;;;;13.17;100;95133.79;;;;
2020/09/01 00:42:24;;;;;;;16.45;14.95;;;;;;;13.17;100;95133.79;;;;
2020/09/01 00:43:29;;;;;;;16.45;14.95;;;;;;;13.17;100;95133.79;;;;
2020/09/01 00:44:36;;;;;;;16.45;14.95;;;;;;;13.17;100;95133.79;;;;
2020/09/01 00:45:41;;;;;;;16.45;14.95;;;;;;;13.17;100;95133.79;;;;
2020/09/01 00:46:46;;;;;;;16.45;14.95;;;;;;;13.17;100;95133.79;;;;
2020/09/01 00:47:51;;;;;;;16.45;14.95;;;;;;;13.17;100;95133.79;;;;
2020/09/01 00:48:59;;;;;;;16.45;14.95;;;;;;;13.17;100;95133.79;;;;
2020/09/01 00:50:08;;;;;;;18.3;16.5;;;;;;;13.1;100;95132.23;;;;
2020/09/01 00:51:16;;;;;;;18.3;16.5;;;;;;;13.1;100;95132.23;;;;
2020/09/01 00:52:22;;;;;;;18.3;16.5;;;;;;;13.1;100;95132.23;;;;
2020/09/01 00:53:29;;;;;;;18.3;16.5;;;;;;;13.1;100;95132.23;;;;
2020/09/01 00:54:38;;;;;;;18.3;16.5;;;;;;;13.1;100;95132.23;;;;
2020/09/01 00:55:43;;;;;;;18.3;16.5;;;;;;;13.1;100;95132.23;;;;
2020/09/01 01:02:44;;;;;;;18.75;17.05;;;;;;;13.13;100;95126.7;;;;
2020/09/01 01:03:48;;;;;;;18.75;17.05;;;;;;;13.13;100;95126.7;;;;
2020/09/01 01:04:57;;;;;;;18.75;17.05;;;;;;;13.13;100;95126.7;;;;
2020/09/01 01:05:57;;;;;;;18.75;17.05;;;;;;;13.13;100;95126.7;;;;
2020/09/01 01:07:02;;;;;;;18.75;17.05;;;;;;;13.13;100;95126.7;;;;
2020/09/01 01:08:07;;;;;;;18.75;17.05;;;;;;;13.13;100;95126.7;;;;
2020/09/01 01:09:18;;;;;;;18.75;17.05;;;;;;;13.13;100;95126.7;;;;
2020/09/01 01:10:24;;;;;;;18.75;17.05;;;;;;;13.13;100;95126.7;;;;
2020/09/01 01:11:32;;;;;;;19.1;17.2;;;;;;;13.13;100;95132.69;;;;
2020/09/01 01:12:42;;;;;;;19.1;17.2;;;;;;;13.13;100;95132.69;;;;
2020/09/01 01:13:48;;;;;;;19.1;17.2;;;;;;;13.13;100;95132.69;;;;
2020/09/01 01:14:58;;;;;;;19.1;17.2;;;;;;;13.13;100;95132.69;;;;
2020/09/01 01:16:05;;;;;;;19.1;17.2;;;;;;;13.13;100;95132.69;;;;
2020/09/01 01:17:10;;;;;;;19.1;17.2;;;;;;;13.13;100;95132.69;;;;
2020/09/01 01:18:12;;;;;;;19.1;17.2;;;;;;;13.13;100;95132.69;;;;
2020/09/01 01:19:19;;;;;;;19.1;17.2;;;;;;;13.13;100;95132.69;;;;
2020/09/01 01:20:25;;;;;;;19.1;17.2;;;;;;;13.13;100;95132.69;;;;
2020/09/01 01:21:35;;;;;;;20.25;18.3;;;;;;;13.15;100;95136.91;;;;
2020/09/01 01:23:12;;;;;;;20.25;18.3;;;;;;;13.15;100;95136.91;;;;
2020/09/01 01:24:19;;;;;;;20.25;18.3;;;;;;;13.15;100;95136.91;;;;
2020/09/01 01:25:20;;;;;;;20.25;18.3;;;;;;;13.15;100;95136.91;;;;
2020/09/01 01:26:27;;;;;;;20.25;18.3;;;;;;;13.15;100;95136.91;;;;
2020/09/01 01:27:34;;;;;;;20.25;18.3;;;;;;;13.15;100;95136.91;;;;
2020/09/01 01:28:42;;;;;;;20.25;18.3;;;;;;;13.15;100;95136.91;;;;
2020/09/01 01:29:46;;;;;;;20.25;18.3;;;;;;;13.15;100;95136.91;;;;
2020/09/01 01:30:51;;;;;;;20.25;18.3;;;;;;;13.15;100;95136.91;;;;
2020/09/01 01:31:57;;;;;;;20.25;18.3;;;;;;;13.15;100;95136.91;;;;
2020/09/01 01:33:02;;;;;;;20.7;18.7;;;;;;;13.17;100;95130.55;;;;
2020/09/01 01:34:10;;;;;;;20.7;18.7;;;;;;;13.17;100;95130.55;;;;
2020/09/01 01:35:16;;;;;;;20.7;18.7;;;;;;;13.17;100;95130.55;;;;
2020/09/01 01:36:20;;;;;;;20.7;18.7;;;;;;;13.17;100;95130.55;;;;
2020/09/01 01:37:24;;;;;;;20.7;18.7;;;;;;;13.17;100;95130.55;;;;
2020/09/01 01:38:30;;;;;;;20.7;18.7;;;;;;;13.17;100;95130.55;;;;
2020/09/01 01:39:35;;;;;;;20.7;18.7;;;;;;;13.17;100;95130.55;;;;
2020/09/01 01:40:40;;;;;;;20.7;18.7;;;;;;;13.17;100;95130.55;;;;
2020/09/01 01:41:45;;;;;;;20.7;18.7;;;;;;;13.17;100;95130.55;;;;
2020/09/01 01:42:50;;;;;;;20.7;18.7;;;;;;;13.17;100;95130.55;;;;
2020/09/01 01:43:56;;;;;;;20;18.05;;;;;;;13.16;100;95141.24;;;;
2020/09/01 01:45:01;;;;;;;20;18.05;;;;;;;13.16;100;95141.24;;;;
2020/09/01 01:46:07;;;;;;;20;18.05;;;;;;;13.16;100;95141.24;;;;
2020/09/01 01:47:08;;;;;;;20;18.05;;;;;;;13.16;100;95141.24;;;;
2020/09/01 01:48:13;;;;;;;20;18.05;;;;;;;13.16;100;95141.24;;;;
2020/09/01 01:49:54;;;;;;;20;18.05;;;;;;;13.16;100;95141.24;;;;
2020/09/01 01:51:03;;;;;;;20;18.05;;;;;;;13.16;100;95141.24;;;;
2020/09/01 01:52:16;;;;;;;20;18.05;;;;;;;13.16;100;95141.24;;;;
2020/09/01 01:53:27;;;;;;;20;18.05;;;;;;;13.16;100;95141.24;;;;
2020/09/01 01:54:35;;;;;;;21.35;19.25;;;;;;;13.13;100;95148.53;;;;
2020/09/01 01:55:35;;;;;;;21.35;19.25;;;;;;;13.13;100;95148.53;;;;
2020/09/01 01:56:41;;;;;;;21.35;19.25;;;;;;;13.13;100;95148.53;;;;
2020/09/01 01:57:45;;;;;;;21.35;19.25;;;;;;;13.13;100;95148.53;;;;
2020/09/01 01:58:47;;;;;;;21.35;19.25;;;;;;;13.13;100;95148.53;;;;
2020/09/01 01:59:54;;;;;;;21.35;19.25;;;;;;;13.13;100;95148.53;;;;
2020/09/01 02:00:59;;;;;;;21.35;19.25;;;;;;;13.13;100;95148.53;;;;
2020/09/01 02:02:04;;;;;;;21.35;19.25;;;;;;;13.13;100;95148.53;;;;
2020/09/01 02:03:11;;;;;;;21.35;19.25;;;;;;;13.13;100;95148.53;;;;
2020/09/01 02:04:30;;;;;;;22.5;20.2;;;;;;;13.11;100;95154.22;;;;
2020/09/01 02:05:37;;;;;;;22.5;20.2;;;;;;;13.11;100;95154.22;;;;
2020/09/01 02:06:38;;;;;;;22.5;20.2;;;;;;;13.11;100;95154.22;;;;
2020/09/01 02:07:44;;;;;;;22.5;20.2;;;;;;;13.11;100;95154.22;;;;
2020/09/01 02:08:49;;;;;;;22.5;20.2;;;;;;;13.11;100;95154.22;;;;
2020/09/01 02:15:04;;;;;;;23.3;21;;;;;;;13.13;100;95156.14;;;;
2020/09/01 02:16:10;;;;;;;23.3;21;;;;;;;13.13;100;95156.14;;;;
2020/09/01 02:17:15;;;;;;;23.3;21;;;;;;;13.13;100;95156.14;;;;
2020/09/01 02:18:17;;;;;;;23.3;21;;;;;;;13.13;100;95156.14;;;;
2020/09/01 02:19:27;;;;;;;23.3;21;;;;;;;13.13;100;95156.14;;;;
2020/09/01 02:20:32;;;;;;;23.3;21;;;;;;;13.13;100;95156.14;;;;
2020/09/01 02:21:37;;;;;;;23.3;21;;;;;;;13.13;100;95156.14;;;;
2020/09/01 02:22:44;;;;;;;23.3;21;;;;;;;13.13;100;95156.14;;;;
2020/09/01 02:23:49;;;;;;;23.3;21;;;;;;;13.13;100;95156.14;;;;
2020/09/01 02:24:50;;;;;;;23.3;21;;;;;;;13.13;100;95156.14;;;;
2020/09/01 02:25:55;;;;;;;25.25;22.8;;;;;;;13.17;100;95141.39;;;;
2020/09/01 02:27:00;;;;;;;25.25;22.8;;;;;;;13.17;100;95141.39;;;;
2020/09/01 02:28:01;;;;;;;25.25;22.8;;;;;;;13.17;100;95141.39;;;;
2020/09/01 02:29:06;;;;;;;25.25;22.8;;;;;;;13.17;100;95141.39;;;;
2020/09/01 02:30:10;;;;;;;25.25;22.8;;;;;;;13.17;100;95141.39;;;;
2020/09/01 02:31:22;;;;;;;25.25;22.8;;;;;;;13.17;100;95141.39;;;;
2020/09/01 02:32:29;;;;;;;25.25;22.8;;;;;;;13.17;100;95141.39;;;;
2020/09/01 02:33:34;;;;;;;25.25;22.8;;;;;;;13.17;100;95141.39;;;;
2020/09/01 02:34:39;;;;;;;25.25;22.8;;;;;;;13.17;100;95141.39;;;;
2020/09/01 02:35:44;;;;;;;25.25;22.8;;;;;;;13.17;100;95141.39;;;;
2020/09/01 02:36:45;;;;;;;25.6;23.05;;;;;;;13.23;100;95141.33;;;;
2020/09/01 02:37:52;;;;;;;25.6;23.05;;;;;;;13.23;100;95141.33;;;;
2020/09/01 02:38:58;;;;;;;25.6;23.05;;;;;;;13.23;100;95141.33;;;;
2020/09/01 02:40:03;;;;;;;25.6;23.05;;;;;;;13.23;100;95141.33;;;;
2020/09/01 02:41:11;;;;;;;25.6;23.05;;;;;;;13.23;100;95141.33;;;;
2020/09/01 02:42:17;;;;;;;25.6;23.05;;;;;;;13.23;100;95141.33;;;;
2020/09/01 02:43:23;;;;;;;25.6;23.05;;;;;;;13.23;100;95141.33;;;;
2020/09/01 02:44:30;;;;;;;25.6;23.05;;;;;;;13.23;100;95141.33;;;;
2020/09/01 02:45:43;;;;;;;25.6;23.05;;;;;;;13.23;100;95141.33;;;;
2020/09/01 02:46:50;;;;;;;25.6;23.05;;;;;;;13.23;100;95141.33;;;;
2020/09/01 02:47:55;;;;;;;25.95;23.2;;;;;;;13.29;100;95137.6;;;;
2020/09/01 02:49:00;;;;;;;25.95;23.2;;;;;;;13.29;100;95137.6;;;;
2020/09/01 02:50:07;;;;;;;25.95;23.2;;;;;;;13.29;100;95137.6;;;;
2020/09/01 02:51:15;;;;;;;25.95;23.2;;;;;;;13.29;100;95137.6;;;;
2020/09/01 02:52:20;;;;;;;25.95;23.2;;;;;;;13.29;100;95137.6;;;;
2020/09/01 02:53:26;;;;;;;25.95;23.2;;;;;;;13.29;100;95137.6;;;;
2020/09/01 02:54:32;;;;;;;25.95;23.2;;;;;;;13.29;100;95137.6;;;;
2020/09/01 02:55:38;;;;;;;25.95;23.2;;;;;;;13.29;100;95137.6;;;;
2020/09/01 02:56:42;;;;;;;25.95;23.2;;;;;;;13.29;100;95137.6;;;;
2020/09/01 02:57:47;;;;;;;28.29999;25.3;;;;;;;13.28;100;95130.94;;;;
2020/09/01 02:58:48;;;;;;;28.29999;25.3;;;;;;;13.28;100;95130.94;;;;
2020/09/01 02:59:54;;;;;;;28.29999;25.3;;;;;;;13.28;100;95130.94;;;;
2020/09/01 03:00:56;;;;;;;28.29999;25.3;;;;;;;13.28;100;95130.94;;;;
2020/09/01 03:01:57;;;;;;;28.29999;25.3;;;;;;;13.28;100;95130.94;;;;
2020/09/01 03:03:00;;;;;;;28.29999;25.3;;;;;;;13.28;100;95130.94;;;;
2020/09/01 03:04:02;;;;;;;28.29999;25.3;;;;;;;13.28;100;95130.94;;;;
2020/09/01 03:05:05;;;;;;;28.29999;25.3;;;;;;;13.28;100;95130.94;;;;
2020/09/01 03:06:11;;;;;;;28.29999;25.3;;;;;;;13.28;100;95130.94;;;;
2020/09/01 03:07:13;;;;;;;28.29999;25.3;;;;;;;13.28;100;95130.94;;;;
2020/09/01 03:08:22;;;;;;;28.35;25.35;;;;;;;13.27;100;95126.61;;;;
2020/09/01 03:09:40;;;;;;;28.35;25.35;;;;;;;13.27;100;95126.61;;;;
2020/09/01 03:10:56;;;;;;;28.35;25.35;;;;;;;13.27;100;95126.61;;;;
2020/09/01 03:11:57;;;;;;;28.35;25.35;;;;;;;13.27;100;95126.61;;;;
2020/09/01 03:12:58;;;;;;;28.35;25.35;;;;;;;13.27;100;95126.61;;;;
2020/09/01 03:14:03;;;;;;;28.35;25.35;;;;;;;13.27;100;95126.61;;;;
2020/09/01 03:15:08;;;;;;;28.35;25.35;;;;;;;13.27;100;95126.61;;;;
2020/09/01 03:16:13;;;;;;;28.35;25.35;;;;;;;13.27;100;95126.61;;;;
2020/09/01 03:17:22;;;;;;;28.35;25.35;;;;;;;13.27;100;95126.61;;;;
2020/09/01 03:18:24;;;;;;;28.35;25.35;;;;;;;13.27;100;95126.61;;;;
2020/09/01 03:19:24;;;;;;;26.65;23.9;;;;;;;13.25;100;95123.86;;;;
2020/09/01 03:20:32;;;;;;;26.65;23.9;;;;;;;13.25;100;95123.86;;;;
2020/09/01 03:21:36;;;;;;;26.65;23.9;;;;;;;13.25;100;95123.86;;;;
2020/09/01 03:22:42;;;;;;;26.65;23.9;;;;;;;13.25;100;95123.86;;;;
2020/09/01 03:23:48;;;;;;;26.65;23.9;;;;;;;13.25;100;95123.86;;;;
2020/09/01 03:24:49;;;;;;;26.65;23.9;;;;;;;13.25;100;95123.86;;;;
2020/09/01 03:25:54;;;;;;;26.65;23.9;;;;;;;13.25;100;95123.86;;;;
2020/09/01 03:26:57;;;;;;;26.65;23.9;;;;;;;13.25;100;95123.86;;;;
2020/09/01 03:27:58;;;;;;;26.65;23.9;;;;;;;13.25;100;95123.86;;;;
2020/09/01 03:29:02;;;;;;;26.65;23.9;;;;;;;13.25;100;95123.86;;;;
2020/09/01 03:30:07;;;;;;;25.1;22.45;;;;;;;13.15;100;95123.77;;;;
2020/09/01 03:31:10;;;;;;;25.1;22.45;;;;;;;13.15;100;95123.77;;;;
2020/09/01 03:32:16;;;;;;;25.1;22.45;;;;;;;13.15;100;95123.77;;;;
2020/09/01 03:33:24;;;;;;;25.1;22.45;;;;;;;13.15;100;95123.77;;;;
2020/09/01 03:34:29;;;;;;;25.1;22.45;;;;;;;13.15;100;95123.77;;;;
2020/09/01 03:35:36;;;;;;;25.1;22.45;;;;;;;13.15;100;95123.77;;;;
2020/09/01 03:36:39;;;;;;;25.1;22.45;;;;;;;13.15;100;95123.77;;;;
2020/09/01 03:37:44;;;;;;;25.1;22.45;;;;;;;13.15;100;95123.77;;;;
2020/09/01 03:38:51;;;;;;;25.1;22.45;;;;;;;13.15;100;95123.77;;;;
2020/09/01 03:39:52;;;;;;;25.1;22.45;;;;;;;13.15;100;95123.77;;;;
2020/09/01 03:40:58;;;;;;;26.5;23.75;;;;;;;13.18;100;95125.02;;;;
2020/09/01 03:42:03;;;;;;;26.5;23.75;;;;;;;13.18;100;95125.02;;;;
2020/09/01 03:43:12;;;;;;;26.5;23.75;;;;;;;13.18;100;95125.02;;;;
2020/09/01 03:44:20;;;;;;;26.5;23.75;;;;;;;13.18;100;95125.02;;;;
2020/09/01 03:45:29;;;;;;;26.5;23.75;;;;;;;13.18;100;95125.02;;;;
2020/09/01 03:46:36;;;;;;;26.5;23.75;;;;;;;13.18;100;95125.02;;;;
2020/09/01 03:47:47;;;;;;;26.5;23.75;;;;;;;13.18;100;95125.02;;;;
2020/09/01 03:48:57;;;;;;;26.5;23.75;;;;;;;13.18;100;95125.02;;;;
2020/09/01 03:50:02;;;;;;;26.5;23.75;;;;;;;13.18;100;95125.02;;;;
2020/09/01 03:51:17;;;;;;;24.95001;22.35;;;;;;;13.29;100;95127.7;;;;
2020/09/01 03:52:30;;;;;;;24.95001;22.35;;;;;;;13.29;100;95127.7;;;;
2020/09/01 03:53:38;;;;;;;24.95001;22.35;;;;;;;13.29;100;95127.7;;;;
2020/09/01 03:54:49;;;;;;;24.95001;22.35;;;;;;;13.29;100;95127.7;;;;
2020/09/01 03:55:57;;;;;;;24.95001;22.35;;;;;;;13.29;100;95127.7;;;;
2020/09/01 03:57:08;;;;;;;24.95001;22.35;;;;;;;13.29;100;95127.7;;;;
2020/09/01 03:58:26;;;;;;;24.95001;22.35;;;;;;;13.29;100;95127.7;;;;
2020/09/01 03:59:35;;;;;;;24.95001;22.35;;;;;;;13.29;100;95127.7;;;;
2020/09/01 04:00:42;;;;;;;24.95001;22.35;;;;;;;13.29;100;95127.7;;;;
2020/09/01 04:01:51;;;;;;;25.55;22.95;;;;;;;13.34;100;95125.86;;;;
2020/09/01 04:02:56;;;;;;;25.55;22.95;;;;;;;13.34;100;95125.86;;;;
2020/09/01 04:04:04;;;;;;;25.55;22.95;;;;;;;13.34;100;95125.86;;;;
2020/09/01 04:05:17;;;;;;;25.55;22.95;;;;;;;13.34;100;95125.86;;;;
2020/09/01 04:06:37;;;;;;;25.55;22.95;;;;;;;13.34;100;95125.86;;;;
2020/09/01 04:07:44;;;;;;;25.55;22.95;;;;;;;13.34;100;95125.86;;;;
2020/09/01 04:08:49;;;;;;;25.55;22.95;;;;;;;13.34;100;95125.86;;;;
2020/09/01 04:10:06;;;;;;;25.55;22.95;;;;;;;13.34;100;95125.86;;;;
2020/09/01 04:11:11;;;;;;;25.55;22.95;;;;;;;13.34;100;95125.86;;;;
2020/09/01 04:12:24;;;;;;;25.55;22.95;;;;;;;13.34;100;95125.86;;;;
2020/09/01 04:13:37;;;;;;;26.25;23.2;;;;;;;13.44;100;95132.72;;;;
2020/09/01 04:14:38;;;;;;;26.25;23.2;;;;;;;13.44;100;95132.72;;;;
2020/09/01 04:15:47;;;;;;;26.25;23.2;;;;;;;13.44;100;95132.72;;;;
2020/09/01 04:16:51;;;;;;;26.25;23.2;;;;;;;13.44;100;95132.72;;;;
2020/09/01 04:18:09;;;;;;;26.25;23.2;;;;;;;13.44;100;95132.72;;;;
2020/09/01 04:19:23;;;;;;;26.25;23.2;;;;;;;13.44;100;95132.72;;;;
2020/09/01 04:20:29;;;;;;;26.25;23.2;;;;;;;13.44;100;95132.72;;;;
2020/09/01 04:21:38;;;;;;;26.25;23.2;;;;;;;13.44;100;95132.72;;;;
2020/09/01 04:22:48;;;;;;;26.25;23.2;;;;;;;13.44;100;95132.72;;;;
2020/09/01 04:23:53;;;;;;;29.2;25.65;;;;;;;13.52;100;95128.73;;;;
2020/09/01 04:25:05;;;;;;;29.2;25.65;;;;;;;13.52;100;95128.73;;;;
2020/09/01 04:26:23;;;;;;;29.2;25.65;;;;;;;13.52;100;95128.73;;;;
2020/09/01 04:27:36;;;;;;;29.2;25.65;;;;;;;13.52;100;95128.73;;;;
2020/09/01 04:28:45;;;;;;;29.2;25.65;;;;;;;13.52;100;95128.73;;;;
2020/09/01 04:29:52;;;;;;;29.2;25.65;;;;;;;13.52;100;95128.73;;;;
2020/09/01 04:30:57;;;;;;;29.2;25.65;;;;;;;13.52;100;95128.73;;;;
2020/09/01 04:32:08;;;;;;;29.2;25.65;;;;;;;13.52;100;95128.73;;;;
2020/09/01 04:33:29;;;;;;;29.2;25.65;;;;;;;13.52;100;95128.73;;;;
2020/09/01 04:34:33;;;;;;;32.5;28.5;;;;;;;13.49;100;95136.03;;;;
2020/09/01 04:35:38;;;;;;;32.5;28.5;;;;;;;13.49;100;95136.03;;;;
2020/09/01 04:36:50;;;;;;;32.5;28.5;;;;;;;13.49;100;95136.03;;;;
2020/09/01 04:37:59;;;;;;;32.5;28.5;;;;;;;13.49;100;95136.03;;;;
2020/09/01 04:39:09;;;;;;;32.5;28.5;;;;;;;13.49;100;95136.03;;;;
2020/09/01 04:40:27;;;;;;;32.5;28.5;;;;;;;13.49;100;95136.03;;;;
2020/09/01 04:41:38;;;;;;;32.5;28.5;;;;;;;13.49;100;95136.03;;;;
2020/09/01 04:42:42;;;;;;;32.5;28.5;;;;;;;13.49;100;95136.03;;;;
2020/09/01 04:43:46;;;;;;;32.5;28.5;;;;;;;13.49;100;95136.03;;;;
2020/09/01 04:44:50;;;;;;;37.15;29.05;;;;;;;13.43;100;95138.4;;;;
2020/09/01 04:45:58;;;;;;;37.15;29.05;;;;;;;13.43;100;95138.4;;;;
2020/09/01 04:47:11;;;;;;;37.15;29.05;;;;;;;13.43;100;95138.4;;;;
2020/09/01 04:48:27;;;;;;;37.15;29.05;;;;;;;13.43;100;95138.4;;;;
2020/09/01 04:49:37;;;;;;;37.15;29.05;;;;;;;13.43;100;95138.4;;;;
2020/09/01 04:50:48;;;;;;;37.15;29.05;;;;;;;13.43;100;95138.4;;;;
2020/09/01 04:51:55;;;;;;;37.15;29.05;;;;;;;13.43;100;95138.4;;;;
2020/09/01 04:53:02;;;;;;;37.15;29.05;;;;;;;13.43;100;95138.4;;;;
2020/09/01 04:54:29;;;;;;;37.15;29.05;;;;;;;13.43;100;95138.4;;;;
2020/09/01 04:55:38;;;;;;;35.75;29.05;;;;;;;13.43;100;95137.47;;;;
2020/09/01 04:56:44;;;;;;;35.75;29.05;;;;;;;13.43;100;95137.47;;;;
2020/09/01 04:57:51;;;;;;;35.75;29.05;;;;;;;13.43;100;95137.47;;;;
2020/09/01 04:58:55;;;;;;;35.75;29.05;;;;;;;13.43;100;95137.47;;;;
2020/09/01 05:00:10;;;;;;;35.75;29.05;;;;;;;13.43;100;95137.47;;;;
2020/09/01 05:01:35;;;;;;;35.75;29.05;;;;;;;13.43;100;95137.47;;;;
2020/09/01 05:02:41;;;;;;;35.75;29.05;;;;;;;13.43;100;95137.47;;;;
2020/09/01 05:03:45;;;;;;;35.75;29.05;;;;;;;13.43;100;95137.47;;;;
2020/09/01 05:04:53;;;;;;;35.75;29.05;;;;;;;13.43;100;95137.47;;;;
2020/09/01 05:06:00;;;;;;;32.35;27.9;;;;;;;13.46;100;95138.83;;;;
2020/09/01 05:07:07;;;;;;;32.35;27.9;;;;;;;13.46;100;95138.83;;;;
2020/09/01 05:08:24;;;;;;;32.35;27.9;;;;;;;13.46;100;95138.83;;;;
2020/09/01 05:10:02;;;;;;;32.35;27.9;;;;;;;13.46;100;95138.83;;;;
2020/09/01 05:11:19;;;;;;;32.35;27.9;;;;;;;13.46;100;95138.83;;;;
2020/09/01 05:12:45;;;;;;;32.35;27.9;;;;;;;13.46;100;95138.83;;;;
2020/09/01 05:14:01;;;;;;;32.35;27.9;;;;;;;13.46;100;95138.83;;;;
2020/09/01 05:15:07;;;;;;;32.35;27.9;;;;;;;13.46;100;95138.83;;;;
2020/09/01 05:16:14;;;;;;;32.35;27.9;;;;;;;13.46;100;95138.83;;;;
2020/09/01 05:17:18;;;;;;;32.6;27.8;;;;;;;13.49;100;95140.1;;;;
2020/09/01 05:18:29;;;;;;;32.6;27.8;;;;;;;13.49;100;95140.1;;;;
2020/09/01 05:19:35;;;;;;;32.6;27.8;;;;;;;13.49;100;95140.1;;;;
2020/09/01 05:20:41;;;;;;;32.6;27.8;;;;;;;13.49;100;95140.1;;;;
2020/09/01 05:21:48;;;;;;;32.6;27.8;;;;;;;13.49;100;95140.1;;;;
2020/09/01 05:23:05;;;;;;;32.6;27.8;;;;;;;13.49;100;95140.1;;;;
2020/09/01 05:24:10;;;;;;;32.6;27.8;;;;;;;13.49;100;95140.1;;;;
2020/09/01 05:25:26;;;;;;;32.6;27.8;;;;;;;13.49;100;95140.1;;;;
2020/09/01 05:26:39;;;;;;;32.6;27.8;;;;;;;13.49;100;95140.1;;;;
2020/09/01 05:27:59;;;;;;;32.7;28.25;;;;;;;13.6;100;95152.12;;;;
2020/09/01 05:33:16;;;;;;;32.7;28.25;;;;;;;13.6;100;95152.12;;;;
2020/09/01 05:34:24;;;;;;;32.7;28.25;;;;;;;13.6;100;95152.12;;;;
2020/09/01 05:35:50;;;;;;;32.7;28.25;;;;;;;13.6;100;95152.12;;;;
2020/09/01 05:36:58;;;;;;;32.7;28.25;;;;;;;13.6;100;95152.12;;;;
2020/09/01 05:38:10;;;;;;;28.7;25.65;;;;;;;13.69;100;95138.1;;;;
2020/09/01 05:39:51;;;;;;;28.7;25.65;;;;;;;13.69;100;95138.1;;;;
2020/09/01 05:41:14;;;;;;;28.7;25.65;;;;;;;13.69;100;95138.1;;;;
2020/09/01 05:42:33;;;;;;;28.7;25.65;;;;;;;13.69;100;95138.1;;;;
2020/09/01 05:43:49;;;;;;;28.7;25.65;;;;;;;13.69;100;95138.1;;;;
2020/09/01 05:47:29;;;;;;;28.7;25.65;;;;;;;13.69;100;95138.1;;;;
2020/09/01 05:48:43;;;;;;;27.95;24.85;;;;;;;13.84;100;95143.52;;;;
2020/09/01 05:50:12;;;;;;;27.95;24.85;;;;;;;13.84;100;95143.52;;;;
2020/09/01 05:51:37;;;;;;;27.95;24.85;;;;;;;13.84;100;95143.52;;;;
2020/09/01 05:53:23;;;;;;;27.95;24.85;;;;;;;13.84;100;95143.52;;;;
2020/09/01 05:54:28;;;;;;;27.95;24.85;;;;;;;13.84;100;95143.52;;;;
2020/09/01 05:55:45;;;;;;;27.95;24.85;;;;;;;13.84;100;95143.52;;;;
2020/09/01 05:57:12;;;;;;;27.95;24.85;;;;;;;13.84;100;95143.52;;;;
2020/09/01 05:58:19;;;;;;;27.95;24.85;;;;;;;13.84;100;95143.52;;;;
2020/09/01 05:59:44;;;;;;;26.8;23.9;;;;;;;13.93;100;95159.2;;;;
2020/09/01 06:01:11;;;;;;;26.8;23.9;;;;;;;13.93;100;95159.2;;;;
2020/09/01 06:02:37;;;;;;;26.8;23.9;;;;;;;13.93;100;95159.2;;;;
2020/09/01 06:03:53;;;;;;;26.8;23.9;;;;;;;13.93;100;95159.2;;;;
2020/09/01 06:05:23;;;;;;;26.8;23.9;;;;;;;13.93;100;95159.2;;;;
2020/09/01 06:06:38;;;;;;;26.8;23.9;;;;;;;13.93;100;95159.2;;;;
2020/09/01 06:07:49;;;;;;;26.8;23.9;;;;;;;13.93;100;95159.2;;;;
2020/09/01 06:08:57;;;;;;;26.8;23.9;;;;;;;13.93;100;95159.2;;;;
2020/09/01 06:10:10;;;;;;;26.45;23.7;;;;;;;14.04;100;95158.73;;;;
2020/09/01 06:11:28;;;;;;;26.45;23.7;;;;;;;14.04;100;95158.73;;;;
2020/09/01 06:12:33;;;;;;;26.45;23.7;;;;;;;14.04;100;95158.73;;;;
2020/09/01 06:13:39;;;;;;;26.45;23.7;;;;;;;14.04;100;95158.73;;;;
2020/09/01 06:14:50;;;;;;;26.45;23.7;;;;;;;14.04;100;95158.73;;;;
2020/09/01 06:15:58;;;;;;;26.45;23.7;;;;;;;14.04;100;95158.73;;;;
2020/09/01 06:17:04;;;;;;;26.45;23.7;;;;;;;14.04;100;95158.73;;;;
2020/09/01 06:18:10;;;;;;;26.45;23.7;;;;;;;14.04;100;95158.73;;;;
2020/09/01 06:19:26;;;;;;;26.45;23.7;;;;;;;14.04;100;95158.73;;;;
2020/09/01 06:20:30;;;;;;;26.45;23.7;;;;;;;14.04;100;95158.73;;;;
2020/09/01 06:21:36;;;;;;;24.8;22.1;;;;;;;14.19;100;95165.08;;;;
2020/09/01 06:22:42;;;;;;;24.8;22.1;;;;;;;14.19;100;95165.08;;;;
2020/09/01 06:23:52;;;;;;;24.8;22.1;;;;;;;14.19;100;95165.08;;;;
2020/09/01 06:24:57;;;;;;;24.8;22.1;;;;;;;14.19;100;95165.08;;;;
2020/09/01 06:26:14;;;;;;;24.8;22.1;;;;;;;14.19;100;95165.08;;;;
2020/09/01 06:27:20;;;;;;;24.8;22.1;;;;;;;14.19;100;95165.08;;;;
2020/09/01 06:28:26;;;;;;;24.8;22.1;;;;;;;14.19;100;95165.08;;;;
2020/09/01 06:29:39;;;;;;;24.8;22.1;;;;;;;14.19;100;95165.08;;;;
2020/09/01 06:30:44;;;;;;;24.8;22.1;;;;;;;14.19;100;95165.08;;;;
2020/09/01 06:31:50;;;;;;;24.55;21.75;;;;;;;14.33;100;95178.54;;;;
2020/09/01 06:33:02;;;;;;;24.55;21.75;;;;;;;14.33;100;95178.54;;;;
2020/09/01 06:34:08;;;;;;;24.55;21.75;;;;;;;14.33;100;95178.54;;;;
2020/09/01 06:35:14;;;;;;;24.55;21.75;;;;;;;14.33;100;95178.54;;;;
2020/09/01 06:36:23;;;;;;;24.55;21.75;;;;;;;14.33;100;95178.54;;;;
2020/09/01 06:37:30;;;;;;;24.55;21.75;;;;;;;14.33;100;95178.54;;;;
2020/09/01 06:38:49;;;;;;;24.55;21.75;;;;;;;14.33;100;95178.54;;;;
2020/09/01 06:40:05;;;;;;;24.55;21.75;;;;;;;14.33;100;95178.54;;;;
2020/09/01 06:41:13;;;;;;;24.55;21.75;;;;;;;14.33;100;95178.54;;;;
2020/09/01 06:42:21;;;;;;;23.3;20.55;;;;;;;14.56;100;95176.37;;;;
2020/09/01 06:43:28;;;;;;;23.3;20.55;;;;;;;14.56;100;95176.37;;;;
2020/09/01 06:44:34;;;;;;;23.3;20.55;;;;;;;14.56;100;95176.37;;;;
2020/09/01 06:45:40;;;;;;;23.3;20.55;;;;;;;14.56;100;95176.37;;;;
2020/09/01 06:46:45;;;;;;;23.3;20.55;;;;;;;14.56;100;95176.37;;;;
2020/09/01 06:47:55;;;;;;;23.3;20.55;;;;;;;14.56;100;95176.37;;;;
2020/09/01 06:49:01;;;;;;;23.3;20.55;;;;;;;14.56;100;95176.37;;;;
2020/09/01 06:50:10;;;;;;;23.3;20.55;;;;;;;14.56;100;95176.37;;;;
2020/09/01 06:51:19;;;;;;;23.3;20.55;;;;;;;14.56;100;95176.37;;;;
2020/09/01 06:52:26;;;;;;;23.3;20.55;;;;;;;14.56;100;95176.37;;;;
2020/09/01 06:53:34;;;;;;;24.7;22.2;;;;;;;14.71;100;95179.71;;;;
2020/09/01 06:54:39;;;;;;;24.7;22.2;;;;;;;14.71;100;95179.71;;;;
2020/09/01 06:55:45;;;;;;;24.7;22.2;;;;;;;14.71;100;95179.71;;;;
2020/09/01 06:56:49;;;;;;;24.7;22.2;;;;;;;14.71;100;95179.71;;;;
2020/09/01 06:57:57;;;;;;;24.7;22.2;;;;;;;14.71;100;95179.71;;;;
2020/09/01 06:59:06;;;;;;;24.7;22.2;;;;;;;14.71;100;95179.71;;;;
2020/09/01 07:00:12;;;;;;;24.7;22.2;;;;;;;14.71;100;95179.71;;;;
2020/09/01 07:01:26;;;;;;;24.7;22.2;;;;;;;14.71;100;95179.71;;;;
2020/09/01 07:02:31;;;;;;;24.7;22.2;;;;;;;14.71;100;95179.71;;;;
2020/09/01 07:03:37;;;;;;;22.3;20;;;;;;;14.86;100;95175.69;;;;
2020/09/01 07:04:42;;;;;;;22.3;20;;;;;;;14.86;100;95175.69;;;;
2020/09/01 07:05:49;;;;;;;22.3;20;;;;;;;14.86;100;95175.69;;;;
2020/09/01 07:06:58;;;;;;;22.3;20;;;;;;;14.86;100;95175.69;;;;
2020/09/01 07:08:08;;;;;;;22.3;20;;;;;;;14.86;100;95175.69;;;;
2020/09/01 07:09:28;;;;;;;22.3;20;;;;;;;14.86;100;95175.69;;;;